Time;durP1;ratioP1;P1;durP2;ratioP2;P2;SDS_P1;SDS_P2;PMS_P1;PMS_P2;Temp;Humidity;BMP_temperature;BMP_pressure;BME280_temperature;BME280_humidity;BME280_pressure;Samples;Min_cycle;Max_cycle;Signal;HPM_P1;HPM_P2
2021/06/23 00:00:45;;;;;;;26.92;21.73;;;;;;;12.69;100.00;100382.09;5017465;28;20096;-75
2021/06/23 00:03:12;;;;;;;34.28;23.30;;;;;;;12.71;100.00;100388.22;5017060;28;20125;-75
2021/06/23 00:05:38;;;;;;;28.73;21.48;;;;;;;12.71;100.00;100392.72;5016354;28;20042;-77
2021/06/23 00:08:05;;;;;;;27.17;21.13;;;;;;;12.69;100.00;100387.44;5016238;28;20054;-75
2021/06/23 00:10:32;;;;;;;27.42;21.75;;;;;;;12.74;100.00;100392.50;5016365;28;20112;-76
2021/06/23 00:13:09;;;;;;;27.92;19.50;;;;;;;12.71;100.00;100398.06;5016048;28;20104;-74
2021/06/23 00:15:36;;;;;;;30.00;20.80;;;;;;;12.58;100.00;100385.47;5031606;28;20050;-74
2021/06/23 00:18:04;;;;;;;23.48;18.98;;;;;;;12.64;100.00;100400.28;5017331;28;20057;-76
2021/06/23 00:20:31;;;;;;;28.00;20.80;;;;;;;12.52;100.00;100387.72;5015746;28;20439;-76
2021/06/23 00:22:58;;;;;;;30.23;21.13;;;;;;;12.54;100.00;100389.34;5016853;28;20108;-75
2021/06/23 00:25:25;;;;;;;27.77;20.98;;;;;;;12.47;100.00;100379.97;5016815;28;20053;-74
2021/06/23 00:27:52;;;;;;;30.85;21.02;;;;;;;12.61;100.00;100395.13;5016782;28;20054;-76
2021/06/23 00:30:19;;;;;;;30.83;22.25;;;;;;;12.60;100.00;100399.63;5016882;28;20062;-74
2021/06/23 00:32:48;;;;;;;27.92;20.60;;;;;;;12.62;100.00;100403.06;5016605;28;20534;-78
2021/06/23 00:35:15;;;;;;;26.63;20.90;;;;;;;12.56;100.00;100391.91;5016684;28;20104;-75
2021/06/23 00:37:42;;;;;;;34.25;21.15;;;;;;;12.65;100.00;100403.81;5016431;28;20096;-76
2021/06/23 00:40:09;;;;;;;22.85;17.95;;;;;;;12.67;100.00;100405.44;5016786;28;20053;-76
2021/06/23 00:42:37;;;;;;;28.25;19.70;;;;;;;12.57;100.00;100404.31;5016755;28;20053;-75
2021/06/23 00:45:07;;;;;;;25.08;17.63;;;;;;;12.52;100.00;100412.66;5016496;28;20063;-77
2021/06/23 00:47:34;;;;;;;23.10;18.52;;;;;;;12.47;100.00;100415.63;5016374;28;20506;-74
2021/06/23 00:50:06;;;;;;;26.83;17.95;;;;;;;12.44;100.00;100417.66;5016679;28;20049;-76
2021/06/23 00:52:35;;;;;;;28.30;17.92;;;;;;;12.35;100.00;100411.94;5015310;28;20054;-74
2021/06/23 00:55:03;;;;;;;30.95;19.83;;;;;;;12.31;100.00;100415.78;5014598;28;20054;-74
2021/06/23 00:57:32;;;;;;;27.25;17.77;;;;;;;12.28;100.00;100424.00;5016296;28;20344;-75
2021/06/23 00:59:59;;;;;;;30.48;18.77;;;;;;;12.24;100.00;100425.16;5015008;28;20054;-75
2021/06/23 01:02:27;;;;;;;26.23;18.70;;;;;;;12.30;100.00;100422.09;5016189;28;20049;-78
2021/06/23 01:04:54;;;;;;;25.50;19.90;;;;;;;12.28;100.00;100428.50;5016296;28;20050;-74
2021/06/23 01:07:21;;;;;;;28.65;20.83;;;;;;;12.30;100.00;100435.47;5016246;28;20132;-74
2021/06/23 01:09:48;;;;;;;26.90;19.52;;;;;;;12.29;100.00;100433.75;5016250;28;20054;-77
2021/06/23 01:12:23;;;;;;;28.70;18.58;;;;;;;12.30;100.00;100435.47;5015106;28;20058;-75
2021/06/23 01:14:54;;;;;;;25.75;19.00;;;;;;;12.31;100.00;100429.16;5015774;28;20053;-78
2021/06/23 01:17:21;;;;;;;23.50;17.55;;;;;;;12.24;100.00;100435.00;5016298;28;20112;-75
2021/06/23 01:19:51;;;;;;;23.63;17.00;;;;;;;12.20;100.00;100435.19;5022424;28;20049;-76
2021/06/23 01:22:18;;;;;;;24.88;17.83;;;;;;;12.05;100.00;100430.81;5035617;28;20045;-74
2021/06/23 01:24:45;;;;;;;30.50;19.13;;;;;;;12.01;100.00;100440.81;5036259;28;20498;-74
2021/06/23 01:27:12;;;;;;;24.98;17.60;;;;;;;12.07;100.00;100442.28;5038076;28;20053;-77
2021/06/23 01:29:39;;;;;;;28.70;19.90;;;;;;;12.01;100.00;100442.63;5038035;28;20049;-74
2021/06/23 01:32:08;;;;;;;23.63;19.02;;;;;;;11.99;100.00;100440.03;5036561;28;20095;-76
2021/06/23 01:34:36;;;;;;;27.60;20.83;;;;;;;11.95;100.00;100435.84;5035646;28;20064;-76
2021/06/23 01:37:03;;;;;;;28.50;19.30;;;;;;;11.96;100.00;100432.22;5035413;28;20061;-77
2021/06/23 01:39:30;;;;;;;26.15;18.73;;;;;;;11.95;100.00;100438.53;5035484;28;20123;-75
2021/06/23 01:41:56;;;;;;;25.85;18.75;;;;;;;11.93;100.00;100441.28;5018322;28;20430;-75
2021/06/23 01:44:23;;;;;;;24.92;19.42;;;;;;;11.92;100.00;100436.03;5034290;28;20054;-75
2021/06/23 01:46:50;;;;;;;23.58;17.80;;;;;;;11.95;100.00;100444.72;5035569;28;20339;-75
2021/06/23 01:49:21;;;;;;;29.63;19.27;;;;;;;12.00;100.00;100440.91;5034148;28;20454;-76
2021/06/23 01:51:48;;;;;;;26.25;18.70;;;;;;;12.08;100.00;100433.28;5035329;28;20422;-75
2021/06/23 01:54:15;;;;;;;33.60;18.92;;;;;;;12.03;100.00;100444.28;5035216;28;20140;-75
2021/06/23 01:56:42;;;;;;;28.65;18.05;;;;;;;12.02;100.00;100436.31;5035314;28;20062;-73
2021/06/23 01:59:08;;;;;;;24.00;18.10;;;;;;;12.02;100.00;100439.88;5035443;28;20581;-75
2021/06/23 02:01:50;;;;;;;21.35;16.27;;;;;;;12.01;100.00;100435.47;5034651;28;20398;-75
2021/06/23 02:04:59;;;;;;;24.73;18.08;;;;;;;11.86;100.00;100439.09;5034360;28;20135;-73
2021/06/23 02:08:11;;;;;;;25.02;17.02;;;;;;;11.85;100.00;100443.59;5033966;28;20049;-74
2021/06/23 02:10:43;;;;;;;24.60;18.20;;;;;;;11.87;100.00;100443.50;5033857;28;20053;-77
2021/06/23 02:13:28;;;;;;;23.27;18.30;;;;;;;11.85;100.00;100437.38;5035129;28;20333;-74
2021/06/23 02:15:57;;;;;;;25.42;19.27;;;;;;;11.86;100.00;100436.41;5034061;28;20053;-74
2021/06/23 02:18:27;;;;;;;26.02;18.52;;;;;;;11.82;100.00;100441.97;5034798;28;20068;-76
2021/06/23 02:20:57;;;;;;;26.10;20.50;;;;;;;11.81;100.00;100437.56;5019301;28;20054;-76
2021/06/23 02:23:24;;;;;;;22.88;18.33;;;;;;;11.88;100.00;100448.72;5015484;28;20107;-74
2021/06/23 02:25:51;;;;;;;26.02;19.95;;;;;;;11.84;100.00;100441.88;5015044;28;20058;-74
2021/06/23 02:28:19;;;;;;;25.90;20.33;;;;;;;11.88;100.00;100445.22;5015283;28;20104;-74
2021/06/23 02:30:46;;;;;;;23.02;19.27;;;;;;;11.90;100.00;100441.50;5014925;28;20356;-76
2021/06/23 02:33:13;;;;;;;24.83;18.63;;;;;;;11.87;100.00;100444.34;5015386;28;20046;-75
2021/06/23 02:35:40;;;;;;;23.77;19.70;;;;;;;11.87;100.00;100446.19;5014980;28;20050;-74
2021/06/23 02:38:07;;;;;;;27.73;20.75;;;;;;;11.81;100.00;100440.25;5013968;28;20104;-75
2021/06/23 02:40:34;;;;;;;26.60;21.48;;;;;;;11.92;100.00;100446.72;5014900;28;20096;-74
2021/06/23 02:43:01;;;;;;;28.88;21.38;;;;;;;11.87;100.00;100444.34;5014976;28;20092;-74
2021/06/23 02:45:28;;;;;;;29.13;21.42;;;;;;;11.78;100.00;100437.75;5015006;28;20097;-77
2021/06/23 02:47:56;;;;;;;26.67;19.75;;;;;;;11.85;100.00;100446.25;5014774;28;20054;-77
2021/06/23 02:50:24;;;;;;;29.65;22.35;;;;;;;11.81;100.00;100444.72;5014831;28;20333;-75
2021/06/23 02:52:51;;;;;;;25.33;19.30;;;;;;;11.77;100.00;100438.69;5014805;28;20503;-75
2021/06/23 02:55:21;;;;;;;26.80;20.33;;;;;;;11.71;100.00;100443.59;5014711;28;20351;-74
2021/06/23 02:57:48;;;;;;;25.13;20.08;;;;;;;11.79;100.00;100455.53;5015086;28;20478;-74
2021/06/23 03:00:15;;;;;;;28.63;20.60;;;;;;;11.75;100.00;100443.28;5014947;28;20053;-75
2021/06/23 03:02:42;;;;;;;29.65;21.15;;;;;;;11.78;100.00;100450.28;5014502;28;20440;-74
2021/06/23 03:05:10;;;;;;;23.55;19.85;;;;;;;11.65;100.00;100451.03;5014537;28;20046;-74
2021/06/23 03:07:36;;;;;;;26.38;20.90;;;;;;;11.72;100.00;100462.19;5013525;28;20046;-75
2021/06/23 03:10:12;;;;;;;28.75;21.60;;;;;;;11.72;100.00;100456.00;5013825;28;20054;-75
2021/06/23 03:12:39;;;;;;;27.02;20.83;;;;;;;11.72;100.00;100464.00;5015177;28;20057;-74
2021/06/23 03:15:08;;;;;;;30.08;21.48;;;;;;;11.71;100.00;100468.50;5014835;28;20058;-75
2021/06/23 03:17:34;;;;;;;26.42;21.25;;;;;;;11.72;100.00;100467.53;5016518;28;20054;-75
2021/06/23 03:20:07;;;;;;;24.48;19.17;;;;;;;11.71;100.00;100459.63;5026678;28;20501;-75
2021/06/23 03:22:34;;;;;;;31.20;21.10;;;;;;;11.66;100.00;100459.91;5038012;28;20106;-75
2021/06/23 03:25:00;;;;;;;26.27;19.88;;;;;;;11.62;100.00;100456.56;5020631;28;20053;-75
2021/06/23 03:27:27;;;;;;;31.75;22.13;;;;;;;11.68;100.00;100463.34;5037693;28;20099;-76
2021/06/23 03:29:54;;;;;;;30.33;21.08;;;;;;;11.61;100.00;100454.81;5036559;28;20049;-75
2021/06/23 03:32:21;;;;;;;26.30;20.30;;;;;;;11.69;100.00;100465.06;5037475;28;20111;-74
2021/06/23 03:34:47;;;;;;;29.67;20.60;;;;;;;11.64;100.00;100461.78;5037627;28;20137;-73
2021/06/23 03:37:15;;;;;;;30.05;21.75;;;;;;;11.62;100.00;100469.06;5037777;28;20107;-74
2021/06/23 03:39:42;;;;;;;30.60;22.20;;;;;;;11.63;100.00;100466.31;5037933;28;20049;-74
2021/06/23 03:42:09;;;;;;;24.25;19.25;;;;;;;11.72;100.00;100467.53;5036712;28;20080;-74
2021/06/23 03:44:36;;;;;;;25.77;18.70;;;;;;;11.54;100.00;100454.34;5038016;28;20123;-75
2021/06/23 03:47:08;;;;;;;27.08;20.95;;;;;;;11.55;100.00;100473.91;5036836;28;20049;-76
2021/06/23 03:49:34;;;;;;;29.67;21.50;;;;;;;11.64;100.00;100485.84;5037568;28;20053;-77
2021/06/23 03:52:01;;;;;;;28.75;19.70;;;;;;;11.57;100.00;100479.16;5036308;28;20053;-77
2021/06/23 03:54:28;;;;;;;26.75;19.88;;;;;;;11.58;100.00;100476.41;5037436;28;20379;-73
2021/06/23 03:56:54;;;;;;;27.08;20.33;;;;;;;11.59;100.00;100480.78;5037270;28;20481;-74
2021/06/23 03:59:21;;;;;;;22.38;19.38;;;;;;;11.60;100.00;100479.00;5036080;28;20431;-74
2021/06/23 04:01:48;;;;;;;25.10;19.40;;;;;;;11.59;100.00;100469.25;5037008;28;20065;-75
2021/06/23 04:04:15;;;;;;;23.80;19.63;;;;;;;11.55;100.00;100474.78;5037440;28;20053;-75
2021/06/23 04:06:41;;;;;;;25.83;20.00;;;;;;;11.54;100.00;100472.19;5019562;28;20045;-76
2021/06/23 04:09:08;;;;;;;22.33;18.10;;;;;;;11.44;100.00;100468.34;5037336;28;20119;-75
2021/06/23 04:11:34;;;;;;;24.80;19.38;;;;;;;11.46;100.00;100471.78;5035866;28;20057;-78
2021/06/23 04:14:01;;;;;;;22.35;18.52;;;;;;;11.43;100.00;100478.19;5036928;28;20049;-75
2021/06/23 04:16:28;;;;;;;27.15;20.15;;;;;;;11.45;100.00;100486.13;5037178;28;20147;-74
2021/06/23 04:18:55;;;;;;;25.02;20.45;;;;;;;11.53;100.00;100490.06;5036939;28;20049;-76
2021/06/23 04:21:22;;;;;;;24.45;20.50;;;;;;;11.57;100.00;100485.38;5017162;28;20104;-76
2021/06/23 04:23:49;;;;;;;24.90;18.88;;;;;;;11.62;100.00;100485.09;5016102;28;20108;-74
2021/06/23 04:26:15;;;;;;;23.08;19.08;;;;;;;11.58;100.00;100491.56;5017135;28;20064;-75
2021/06/23 04:28:42;;;;;;;24.75;19.55;;;;;;;11.57;100.00;100492.53;5017067;28;20092;-75
2021/06/23 04:31:09;;;;;;;26.20;19.35;;;;;;;11.57;100.00;100479.16;5016855;28;20065;-75
2021/06/23 04:33:35;;;;;;;25.33;19.83;;;;;;;11.51;100.00;100489.25;5016822;28;20057;-78
2021/06/23 04:36:02;;;;;;;29.27;20.02;;;;;;;11.58;100.00;100497.78;5016799;28;20050;-74
2021/06/23 04:38:29;;;;;;;24.05;19.23;;;;;;;11.60;100.00;100492.38;5017026;28;20321;-76
2021/06/23 04:40:56;;;;;;;23.23;18.55;;;;;;;11.54;100.00;100491.78;5016645;28;20400;-75
2021/06/23 04:43:23;;;;;;;23.25;19.02;;;;;;;11.57;100.00;100492.53;5031894;28;20050;-74
2021/06/23 04:45:49;;;;;;;24.33;19.92;;;;;;;11.58;100.00;100494.25;5016908;28;20108;-78
2021/06/23 04:48:16;;;;;;;23.70;20.33;;;;;;;11.58;100.00;100497.78;5016980;28;20088;-73
2021/06/23 04:50:43;;;;;;;27.08;20.13;;;;;;;11.60;100.00;100490.53;5015501;28;20080;-77
2021/06/23 04:53:10;;;;;;;24.98;21.00;;;;;;;11.63;100.00;100495.72;5016550;28;20095;-77
2021/06/23 04:55:36;;;;;;;26.40;20.67;;;;;;;11.57;100.00;100495.19;5016534;28;20475;-76
2021/06/23 04:58:03;;;;;;;28.02;21.60;;;;;;;11.50;100.00;100494.72;5016546;28;20045;-75
2021/06/23 05:00:30;;;;;;;28.33;21.77;;;;;;;11.55;100.00;100503.31;5016037;28;20053;-77
2021/06/23 05:02:57;;;;;;;26.52;22.25;;;;;;;11.54;100.00;100502.47;5016300;28;20072;-75
2021/06/23 05:05:24;;;;;;;29.33;23.10;;;;;;;11.61;100.00;100502.09;5017122;28;20058;-73
2021/06/23 05:07:54;;;;;;;29.75;23.27;;;;;;;11.54;100.00;100506.94;5015515;28;20563;-73
2021/06/23 05:10:21;;;;;;;32.30;24.25;;;;;;;11.66;100.00;100510.72;5017456;28;20080;-75
2021/06/23 05:12:49;;;;;;;27.95;24.00;;;;;;;11.62;100.00;100504.69;5013987;28;20062;-76
2021/06/23 05:15:15;;;;;;;30.45;25.45;;;;;;;11.62;100.00;100509.16;5016659;28;20077;-72
2021/06/23 05:17:42;;;;;;;33.28;23.45;;;;;;;11.61;100.00;100492.25;5019837;28;20119;-77
2021/06/23 05:20:10;;;;;;;29.75;22.83;;;;;;;11.68;100.00;100508.78;5028131;28;20124;-78
2021/06/23 05:22:38;;;;;;;27.27;22.73;;;;;;;11.61;100.00;100508.28;5026799;28;20050;-79
2021/06/23 05:25:05;;;;;;;28.77;22.85;;;;;;;11.57;100.00;100506.78;5025553;28;20042;-78
2021/06/23 05:27:35;;;;;;;31.20;23.40;;;;;;;11.60;100.00;100501.22;5021667;28;20108;-78
2021/06/23 05:30:03;;;;;;;30.77;23.70;;;;;;;11.60;100.00;100514.59;5023172;28;20045;-77
2021/06/23 05:32:30;;;;;;;27.10;23.00;;;;;;;11.57;100.00;100498.75;5025917;28;20096;-82
2021/06/23 05:34:57;;;;;;;34.13;22.70;;;;;;;11.54;100.00;100497.13;5026239;28;20072;-79
2021/06/23 05:37:23;;;;;;;26.50;23.52;;;;;;;11.53;100.00;100489.19;5027804;28;20494;-78
2021/06/23 05:39:50;;;;;;;30.85;24.00;;;;;;;11.72;100.00;100504.97;5023770;28;20414;-77
2021/06/23 05:42:17;;;;;;;27.30;22.40;;;;;;;11.71;100.00;100508.59;5026865;28;20481;-80
2021/06/23 05:44:44;;;;;;;28.70;23.90;;;;;;;11.66;100.00;100510.72;5023802;28;20061;-76
2021/06/23 05:47:10;;;;;;;29.05;23.17;;;;;;;11.55;100.00;100504.19;5024856;28;20060;-77
2021/06/23 05:49:37;;;;;;;28.77;24.73;;;;;;;11.55;100.00;100509.53;5027350;28;20053;-76
2021/06/23 05:52:04;;;;;;;26.48;21.52;;;;;;;11.68;100.00;100519.50;5007632;28;20045;-77
2021/06/23 05:54:31;;;;;;;25.73;21.88;;;;;;;11.65;100.00;100527.69;5023351;28;20046;-79
2021/06/23 05:56:58;;;;;;;29.90;23.08;;;;;;;11.55;100.00;100511.31;5024673;28;20046;-76
2021/06/23 05:59:25;;;;;;;27.17;24.02;;;;;;;11.55;100.00;100522.91;5022972;28;20099;-84
2021/06/23 06:01:51;;;;;;;28.27;24.58;;;;;;;11.62;100.00;100528.75;5024131;28;20057;-83
2021/06/23 06:04:18;;;;;;;36.00;23.33;;;;;;;11.64;100.00;100532.19;5024203;28;20133;-84
2021/06/23 06:06:45;;;;;;;28.35;22.75;;;;;;;11.55;100.00;100525.56;5025101;28;20375;-82
2021/06/23 06:09:12;;;;;;;26.25;22.45;;;;;;;11.58;100.00;100534.34;5025046;28;20046;-77
2021/06/23 06:11:39;;;;;;;30.60;23.98;;;;;;;11.58;100.00;100542.38;5042784;28;20064;-79
2021/06/23 06:14:05;;;;;;;31.15;24.52;;;;;;;11.55;100.00;100543.41;5033818;28;20435;-78
2021/06/23 06:16:32;;;;;;;30.85;24.40;;;;;;;11.58;100.00;100540.56;5034943;28;20049;-76
2021/06/23 06:18:59;;;;;;;34.00;25.45;;;;;;;11.62;100.00;100546.59;5033481;28;20359;-76
2021/06/23 06:21:26;;;;;;;26.92;22.42;;;;;;;11.67;100.00;100537.34;5015390;28;20104;-79
2021/06/23 06:23:53;;;;;;;28.77;23.52;;;;;;;11.58;100.00;100524.53;5015279;28;20054;-78
2021/06/23 06:26:19;;;;;;;27.50;23.05;;;;;;;11.59;100.00;100534.25;5015236;28;20050;-76
2021/06/23 06:28:46;;;;;;;32.67;24.85;;;;;;;11.62;100.00;100544.78;5014097;28;20049;-79
2021/06/23 06:31:13;;;;;;;30.15;24.90;;;;;;;11.63;100.00;100550.97;5014907;28;20096;-81
2021/06/23 06:33:40;;;;;;;30.25;23.63;;;;;;;11.62;100.00;100559.97;5014284;28;20046;-79
2021/06/23 06:36:07;;;;;;;32.10;25.52;;;;;;;11.53;100.00;100554.22;5015084;28;20440;-78
2021/06/23 06:38:34;;;;;;;32.88;26.15;;;;;;;11.54;100.00;100555.94;5015074;28;20046;-76
2021/06/23 06:41:01;;;;;;;31.77;25.00;;;;;;;11.48;100.00;100537.56;5015064;28;20054;-77
2021/06/23 06:43:27;;;;;;;29.55;25.17;;;;;;;11.63;100.00;100554.53;5030131;28;20112;-77
2021/06/23 06:45:54;;;;;;;30.60;25.00;;;;;;;11.73;100.00;100560.19;5015232;28;20054;-77
2021/06/23 06:48:23;;;;;;;32.40;26.58;;;;;;;11.78;100.00;100566.09;5014896;28;20046;-77
2021/06/23 06:50:51;;;;;;;30.73;24.08;;;;;;;11.79;100.00;100565.19;5015370;28;20050;-77
2021/06/23 06:53:18;;;;;;;31.95;25.42;;;;;;;11.76;100.00;100568.03;5018365;28;20211;-76
2021/06/23 06:55:45;;;;;;;31.40;26.33;;;;;;;11.76;100.00;100570.69;5018817;28;20119;-76
2021/06/23 06:58:13;;;;;;;34.30;25.73;;;;;;;11.78;100.00;100568.78;5018716;28;20046;-78
2021/06/23 07:00:40;;;;;;;32.80;27.13;;;;;;;11.89;100.00;100569.97;5018416;28;20112;-77
2021/06/23 07:03:07;;;;;;;35.03;26.55;;;;;;;11.92;100.00;100572.44;5018591;28;20050;-79
2021/06/23 07:05:34;;;;;;;33.35;26.85;;;;;;;11.85;100.00;100571.09;5018662;28;20176;-78
2021/06/23 07:08:00;;;;;;;40.35;28.10;;;;;;;11.77;100.00;100559.03;5017872;28;20076;-76
2021/06/23 07:10:27;;;;;;;33.97;26.20;;;;;;;11.88;100.00;100571.75;5018377;28;20054;-78
2021/06/23 07:12:55;;;;;;;31.58;24.60;;;;;;;11.91;100.00;100582.31;5018405;28;20054;-79
2021/06/23 07:15:21;;;;;;;32.45;24.83;;;;;;;11.91;100.00;100568.91;5018570;28;20058;-75
2021/06/23 07:17:51;;;;;;;36.83;26.25;;;;;;;11.87;100.00;100577.22;5018201;28;20050;-76
2021/06/23 07:20:19;;;;;;;34.72;24.58;;;;;;;12.00;100.00;100578.22;5029362;28;20106;-76
2021/06/23 07:22:46;;;;;;;32.95;25.08;;;;;;;11.92;100.00;100585.81;5038031;28;20434;-77
2021/06/23 07:25:13;;;;;;;37.70;26.20;;;;;;;11.92;100.00;100577.78;5037943;28;20384;-78
2021/06/23 07:27:40;;;;;;;34.67;25.15;;;;;;;11.97;100.00;100578.38;5037996;28;20057;-77
2021/06/23 07:30:08;;;;;;;39.50;25.70;;;;;;;11.91;100.00;100582.31;5036919;28;20410;-78
2021/06/23 07:32:46;;;;;;;40.17;27.65;;;;;;;11.94;100.00;100573.22;5037871;28;20049;-79
2021/06/23 07:38:00;;;;;;;40.20;26.80;;;;;;;12.08;100.00;100573.28;5037956;28;20508;-79
2021/06/23 07:40:43;;;;;;;35.00;27.25;;;;;;;12.04;100.00;100563.72;5037735;28;20057;-79
2021/06/23 07:43:11;;;;;;;36.28;29.95;;;;;;;12.15;100.00;100567.56;5037943;28;20060;-78
2021/06/23 07:45:44;;;;;;;36.60;28.80;;;;;;;12.14;100.00;100571.19;5037496;28;20056;-78
2021/06/23 07:48:27;;;;;;;43.55;30.30;;;;;;;12.18;100.00;100567.34;5037743;28;20709;-79
2021/06/23 07:51:10;;;;;;;34.55;28.08;;;;;;;12.19;100.00;100555.69;5037418;28;20331;-79
2021/06/23 07:56:08;;;;;;;37.05;30.92;;;;;;;12.15;100.00;100560.38;5037255;28;20080;-78
2021/06/23 08:14:39;;;;;;;40.40;29.23;;;;;;;12.27;100.00;100561.47;5037090;28;20103;-79
2021/06/23 08:17:06;;;;;;;35.05;27.33;;;;;;;12.37;100.00;100585.84;5020912;28;20394;-78
2021/06/23 08:19:33;;;;;;;37.10;29.20;;;;;;;12.23;100.00;100573.28;5032086;28;20347;-77
2021/06/23 08:22:00;;;;;;;36.08;29.55;;;;;;;12.34;100.00;100586.88;5016898;28;20439;-77
2021/06/23 08:24:27;;;;;;;39.17;30.10;;;;;;;12.32;100.00;100596.81;5017210;28;20057;-77
2021/06/23 08:26:53;;;;;;;37.53;31.38;;;;;;;12.40;100.00;100598.16;5015828;28;20432;-80
2021/06/23 08:29:20;;;;;;;39.30;29.23;;;;;;;12.40;100.00;100587.44;5016246;28;20057;-76
2021/06/23 08:31:47;;;;;;;37.33;31.00;;;;;;;12.45;100.00;100599.59;5017080;28;20104;-76
2021/06/23 08:34:14;;;;;;;34.55;29.80;;;;;;;12.47;100.00;100605.72;5017250;28;20128;-79
2021/06/23 08:36:41;;;;;;;38.05;29.90;;;;;;;12.47;100.00;100600.34;5016662;28;20049;-77
2021/06/23 08:39:07;;;;;;;41.65;29.30;;;;;;;12.53;100.00;100596.44;5032311;28;20104;-78
2021/06/23 08:41:37;;;;;;;32.47;28.58;;;;;;;12.54;100.00;100598.19;5016640;28;20049;-77
2021/06/23 08:44:06;;;;;;;36.95;28.80;;;;;;;12.55;100.00;100594.53;5016655;28;20105;-77
2021/06/23 08:46:32;;;;;;;35.78;29.50;;;;;;;12.57;100.00;100603.31;5016474;28;20061;-78
2021/06/23 08:49:02;;;;;;;38.35;30.73;;;;;;;12.59;100.00;100605.91;5031905;28;20135;-78
2021/06/23 08:51:29;;;;;;;40.17;32.58;;;;;;;12.65;100.00;100610.03;5016618;28;20184;-77
2021/06/23 08:53:56;;;;;;;38.38;30.83;;;;;;;12.67;100.00;100602.75;5015423;28;20053;-80
2021/06/23 08:56:22;;;;;;;35.47;29.88;;;;;;;12.67;100.00;100602.75;5016714;28;20064;-80
2021/06/23 08:58:49;;;;;;;39.00;29.80;;;;;;;12.60;100.00;100607.63;5016646;28;20455;-79
2021/06/23 09:01:16;;;;;;;39.55;31.60;;;;;;;12.58;100.00;100605.03;5017348;28;20115;-81
2021/06/23 09:04:00;;;;;;;40.20;31.58;;;;;;;12.51;100.00;100595.69;5032431;28;20058;-79
2021/06/23 09:06:50;;;;;;;35.97;30.13;;;;;;;12.58;100.00;100610.41;5021704;28;20053;-76
2021/06/23 09:09:23;;;;;;;38.30;32.10;;;;;;;12.57;100.00;100603.31;5021064;28;20042;-77
2021/06/23 09:11:56;;;;;;;43.45;34.30;;;;;;;12.62;100.00;100609.25;5026598;28;20390;-75
2021/06/23 09:14:24;;;;;;;39.33;32.17;;;;;;;12.50;100.00;100593.97;5025844;28;20050;-75
2021/06/23 09:17:11;;;;;;;46.58;34.33;;;;;;;12.55;100.00;100604.38;5027275;28;20053;-76
2021/06/23 09:19:51;;;;;;;44.72;35.10;;;;;;;12.65;100.00;100607.34;5033251;28;20109;-75
2021/06/23 09:22:41;;;;;;;47.33;33.08;;;;;;;12.69;100.00;100606.19;5045287;28;20054;-75
2021/06/23 09:25:10;;;;;;;45.67;33.63;;;;;;;12.69;100.00;100611.56;5046373;28;20061;-76
2021/06/23 09:27:53;;;;;;;46.38;34.58;;;;;;;12.69;100.00;100616.91;5046010;28;20049;-75
2021/06/23 09:30:27;;;;;;;42.22;34.72;;;;;;;12.72;100.00;100616.72;5041903;28;20053;-76
2021/06/23 09:33:23;;;;;;;44.13;34.70;;;;;;;12.79;100.00;100618.03;5037206;28;20049;-76
2021/06/23 09:35:56;;;;;;;40.65;32.65;;;;;;;12.93;100.00;100617.19;5035727;28;20053;-78
2021/06/23 09:38:36;;;;;;;38.28;33.38;;;;;;;12.79;100.00;100618.03;5035671;28;20077;-78
2021/06/23 09:41:04;;;;;;;41.47;31.02;;;;;;;12.80;100.00;100611.72;5035476;28;20489;-76
2021/06/23 09:43:37;;;;;;;44.95;34.08;;;;;;;12.65;100.00;100613.56;5035956;28;20379;-79
2021/06/23 09:46:27;;;;;;;41.35;33.33;;;;;;;12.67;100.00;100617.00;5035024;28;20049;-77
2021/06/23 09:49:15;;;;;;;40.60;32.70;;;;;;;12.71;100.00;100626.59;5036521;28;20046;-75
2021/06/23 09:51:46;;;;;;;36.75;31.40;;;;;;;12.78;100.00;100621.69;5035504;28;20060;-76
2021/06/23 09:54:15;;;;;;;43.95;34.30;;;;;;;12.73;100.00;100613.94;5036360;28;20060;-77
2021/06/23 09:57:10;;;;;;;49.95;33.42;;;;;;;12.74;100.00;100620.16;5035455;28;20398;-79
2021/06/23 09:59:42;;;;;;;42.30;31.88;;;;;;;12.90;100.00;100612.88;5035746;28;20108;-79
2021/06/23 10:02:32;;;;;;;44.45;33.85;;;;;;;12.87;100.00;100621.09;5035531;28;20045;-76
2021/06/23 10:05:03;;;;;;;44.13;35.30;;;;;;;12.87;100.00;100614.88;5035051;28;20057;-75
2021/06/23 10:07:56;;;;;;;45.60;35.63;;;;;;;12.99;100.00;100621.28;5035401;28;20095;-76
2021/06/23 10:10:41;;;;;;;43.80;33.03;;;;;;;13.02;100.00;100616.56;5034960;28;20108;-79
2021/06/23 10:13:07;;;;;;;43.40;32.70;;;;;;;12.85;100.00;100590.88;5035163;28;20110;-76
2021/06/23 10:15:35;;;;;;;47.83;34.42;;;;;;;12.98;100.00;100617.75;5031951;28;20049;-79
2021/06/23 10:18:04;;;;;;;42.42;34.97;;;;;;;12.97;100.00;100617.84;5024203;28;20042;-78
2021/06/23 10:20:31;;;;;;;44.78;33.70;;;;;;;13.00;100.00;100615.81;5025411;28;20042;-77
2021/06/23 10:23:00;;;;;;;37.78;32.40;;;;;;;12.99;100.00;100623.97;5026966;28;20053;-77
2021/06/23 10:25:28;;;;;;;44.95;33.42;;;;;;;12.99;100.00;100610.56;5006966;28;20088;-76
2021/06/23 10:27:58;;;;;;;43.00;33.00;;;;;;;13.07;100.00;100616.28;5037582;28;20497;-75
2021/06/23 10:30:30;;;;;;;40.40;33.08;;;;;;;13.24;100.00;100622.38;5027225;28;20045;-76
2021/06/23 10:32:58;;;;;;;39.45;31.63;;;;;;;13.21;100.00;100612.72;5030370;28;20045;-79
2021/06/23 10:35:26;;;;;;;35.97;30.92;;;;;;;13.31;99.47;100631.75;5027343;28;20054;-78
2021/06/23 10:37:56;;;;;;;40.72;32.10;;;;;;;13.29;100.00;100626.47;5029355;28;20046;-77
2021/06/23 10:40:26;;;;;;;42.28;31.42;;;;;;;13.28;100.00;100626.56;5028847;28;20118;-77
2021/06/23 10:42:53;;;;;;;36.17;29.40;;;;;;;13.30;100.00;100627.34;5027581;28;20092;-76
2021/06/23 10:45:20;;;;;;;42.33;30.58;;;;;;;13.25;99.95;100624.09;5028633;28;20053;-79
2021/06/23 10:47:48;;;;;;;40.15;29.77;;;;;;;13.28;100.00;100618.53;5030727;28;20388;-84
2021/06/23 10:50:31;;;;;;;39.33;30.00;;;;;;;13.37;100.00;100639.41;5027696;28;20045;-76
2021/06/23 10:52:58;;;;;;;41.55;30.60;;;;;;;13.50;98.82;100630.59;5029857;28;20049;-78
2021/06/23 10:55:25;;;;;;;42.13;29.80;;;;;;;13.62;98.06;100631.59;5029075;28;20096;-78
2021/06/23 10:58:04;;;;;;;33.47;27.48;;;;;;;13.54;97.21;100619.53;5027390;28;20049;-73
2021/06/23 11:00:32;;;;;;;39.67;30.85;;;;;;;13.51;100.00;100624.25;5028907;28;20127;-73
2021/06/23 11:03:13;;;;;;;38.85;28.48;;;;;;;13.55;99.01;100632.00;5037124;28;20080;-75
2021/06/23 11:05:57;;;;;;;40.40;28.52;;;;;;;13.53;97.99;100625.00;5038067;28;20057;-75
2021/06/23 11:08:31;;;;;;;40.15;28.50;;;;;;;13.55;98.23;100632.00;5037948;28;20237;-75
2021/06/23 11:11:03;;;;;;;33.45;26.95;;;;;;;13.47;97.60;100618.22;5038176;28;20145;-76
2021/06/23 11:13:33;;;;;;;38.45;26.75;;;;;;;13.58;98.58;100631.78;5038306;28;20095;-76
2021/06/23 11:16:00;;;;;;;34.20;27.77;;;;;;;13.63;98.75;100623.44;5038182;28;20127;-75
2021/06/23 11:18:46;;;;;;;37.65;27.02;;;;;;;13.75;97.66;100636.97;5037243;28;20081;-75
2021/06/23 11:21:17;;;;;;;35.95;26.38;;;;;;;13.71;97.12;100634.50;5019621;28;20053;-76
2021/06/23 11:23:51;;;;;;;36.53;27.55;;;;;;;13.75;99.67;100636.97;5018252;28;20049;-75
2021/06/23 11:26:18;;;;;;;41.67;26.48;;;;;;;13.87;98.16;100628.09;5018077;28;20058;-76
2021/06/23 11:28:55;;;;;;;35.25;24.95;;;;;;;13.81;97.20;100618.66;5018007;28;20046;-76
2021/06/23 11:31:38;;;;;;;36.47;25.60;;;;;;;13.91;96.93;100632.31;5017832;28;20100;-76
2021/06/23 11:34:05;;;;;;;41.13;26.25;;;;;;;14.03;96.98;100635.13;5017911;28;20371;-76